Quenames — WTU9038 — position and weather

sailwx.info

Track history (hours):
 
Tides and Currents Weather Stations Pressure Air Temp Water Temp Dewpoint Dewpoint Depression Visibility Wind Speed Wind Dir Waves Ship Positions

Quenames

Owner: BOSTON MARINE TRANSPORT INC, Pelham, NH. More information available from US FCC via Universal Licensing System and Coast Guard Vessel Documentation Center.

Last reported at 2017-Apr-29 01:30 UTC. Time now 2017-Apr-29 01:43 UTC.
Position N 40°39' W 074°07'.

Length 23 m; draft 3 m.

Type: Tug. MMSI: 367022790.

Date/timePositionNaut miles runAvg speedWind from/ knotsBaromVisibWave heightAir tempDewpointWater temp
2017-Apr-29 01:30N 40°39' W 074°07'0 0.0
2017-Apr-29 01:00N 40°39' W 074°07'0 0.0
2017-Apr-29 00:30N 40°39' W 074°07'0 0.7
2017-Apr-29 00:00N 40°39' W 074°07'4 8.0
2017-Apr-28 23:30N 40°38' W 074°12'5 9.2
2017-Apr-28 23:00N 40°33' W 074°14'1 0.2
2017-Apr-28 19:58N 40°33' W 074°15'3 2.9
2017-Apr-28 18:51N 40°35' W 074°12'3 7.9
2017-Apr-28 18:30N 40°38' W 074°12'2 4.6
2017-Apr-28 17:59N 40°39' W 074°09'2 4.7
2017-Apr-28 17:30N 40°39' W 074°06'3 6.6
2017-Apr-28 17:00N 40°41' W 074°02'4 8.3
2017-Apr-28 16:30N 40°43' W 073°58'4 7.7
2017-Apr-28 16:00N 40°47' W 073°56'3 6.7
2017-Apr-28 15:30N 40°48' W 073°52'3 5.7
2017-Apr-28 14:55N 40°48' W 073°47'1 0.0
2017-Apr-27 10:39N 40°50' W 073°47'1 7.8
2017-Apr-27 10:30N 40°48' W 073°47'4 7.4
2017-Apr-27 09:59N 40°48' W 073°52'3 6.0
2017-Apr-27 09:30N 40°47' W 073°56'3 5.5
2017-Apr-27 09:00N 40°45' W 073°58'2 4.9
2017-Apr-27 08:31N 40°42' W 073°59'3 5.0
2017-Apr-27 08:00N 40°41' W 074°01'2 3.7
2017-Apr-27 07:30N 40°40' W 074°03'3 6.2
2017-Apr-27 07:00N 40°39' W 074°07'3 6.3
2017-Apr-27 06:30N 40°39' W 074°11'3 5.1
2017-Apr-27 05:55N 40°36' W 074°12'3 4.1
2017-Apr-27 05:16N 40°33' W 074°14'1 1.0
2017-Apr-27 04:39N 40°33' W 074°15'0 0.0
2017-Apr-26 22:03N 40°33' W 074°15'3 6.9
2017-Apr-26 21:34N 40°36' W 074°12'1 8.6
2017-Apr-26 21:30N 40°36' W 074°12'1 2.2
2017-Apr-26 20:53N 40°38' W 074°12'1 2.2
2017-Apr-26 20:30N 40°37' W 074°12'4 0.4
2017-Apr-26 08:59N 40°33' W 074°15'4 8.4
2017-Apr-26 08:30N 40°37' W 074°12'0 0.3
2017-Apr-26 08:00N 40°37' W 074°12'5 0.3
2017-Apr-25 17:03N 40°33' W 074°15'0 4.7
2017-Apr-25 17:00N 40°33' W 074°15'0 0.0
2017-Apr-25 16:24N 40°33' W 074°15'0 0.0
2017-Apr-25 09:51N 40°33' W 074°15'0 0.0
2017-Apr-25 09:29N 40°33' W 074°15'0 0.0
2017-Apr-25 08:59N 40°33' W 074°15'0 0.0
2017-Apr-25 05:50N 40°33' W 074°15'0 0.1
2017-Apr-25 05:07N 40°33' W 074°15'0 1.0
2017-Apr-25 05:00N 40°33' W 074°15'4 5.1
2017-Apr-25 04:18N 40°36' W 074°12'3 8.4
2017-Apr-25 03:59N 40°38' W 074°11'4 7.3
2017-Apr-25 03:30N 40°39' W 074°07'4 7.6
2017-Apr-25 03:00N 40°40' W 074°02'5 9.6
2017-Apr-25 02:30N 40°44' W 073°58'510.1
2017-Apr-25 02:00N 40°48' W 073°54'4 8.5
2017-Apr-25 01:29N 40°48' W 073°48'6 2.4
2017-Apr-24 23:09N 40°53' W 073°44'310.0
2017-Apr-24 22:51N 40°50' W 073°46'3 8.4
2017-Apr-24 22:29N 40°48' W 073°49'611.8
2017-Apr-24 22:00N 40°46' W 073°56'611.8
2017-Apr-24 21:31N 40°41' W 074°01'5 9.7
2017-Apr-24 21:00N 40°39' W 074°06'4 8.3
2017-Apr-24 20:30N 40°39' W 074°11'4 8.4
2017-Apr-24 20:00N 40°34' W 074°13'1 0.7
2017-Apr-24 18:07N 40°36' W 074°12'1 8.1
2017-Apr-24 18:00N 40°36' W 074°12'4 7.6
2017-Apr-24 17:30N 40°39' W 074°08'5 9.7
2017-Apr-24 17:00N 40°40' W 074°02'1 1.9
2017-Apr-24 16:30N 40°40' W 074°03'5 9.3
2017-Apr-24 16:00N 40°39' W 074°09'3 5.4
2017-Apr-24 15:30N 40°37' W 074°12'6 1.0
2017-Apr-24 09:47N 40°32' W 074°15'0 0.0
2017-Apr-24 09:30N 40°32' W 074°15'0 0.0
2017-Apr-24 08:15N 40°32' W 074°15'0 0.0
2017-Apr-24 07:40N 40°32' W 074°15'0 0.0
2017-Apr-24 07:14N 40°32' W 074°15'0 0.0
2017-Apr-24 06:51N 40°32' W 074°15'0 0.0
2017-Apr-24 06:28N 40°32' W 074°15'0 0.0
2017-Apr-24 05:57N 40°32' W 074°15'0 0.0
2017-Apr-24 05:30N 40°32' W 074°15'0 0.0
2017-Apr-24 05:00N 40°32' W 074°15'0 0.0
2017-Apr-23 22:33N 40°32' W 074°15'0 0.0
2017-Apr-23 22:26N 40°32' W 074°15'0 0.0
2017-Apr-23 19:25N 40°32' W 074°15'1 0.6
2017-Apr-23 18:23N 40°33' W 074°15'0 0.3
2017-Apr-23 16:55N 40°33' W 074°15'0 0.0
2017-Apr-23 16:20N 40°33' W 074°15'0 0.0
2017-Apr-23 02:51N 40°33' W 074°15'3 7.1
2017-Apr-23 02:22N 40°35' W 074°12'3 8.6
2017-Apr-23 02:00N 40°38' W 074°12'4 7.1
2017-Apr-23 01:30N 40°39' W 074°07'0 0.8
2017-Apr-23 01:00N 40°39' W 074°06'0 0.0
2017-Apr-23 00:30N 40°39' W 074°06'0 0.0
2017-Apr-23 00:00N 40°39' W 074°06'0 0.0
2017-Apr-22 23:30N 40°39' W 074°06'0 0.0
2017-Apr-22 23:00N 40°39' W 074°06'0 0.0
2017-Apr-22 22:31N 40°39' W 074°06'0 0.0
2017-Apr-22 22:00N 40°39' W 074°06'0 0.0
2017-Apr-22 21:30N 40°39' W 074°06'0 0.0
2017-Apr-22 21:00N 40°39' W 074°06'0 0.0
2017-Apr-22 20:30N 40°39' W 074°06'0 0.0
2017-Apr-22 20:00N 40°39' W 074°06'0 0.0
2017-Apr-22 19:30N 40°39' W 074°06'0 0.0
2017-Apr-22 19:00N 40°39' W 074°06'0 0.0
2017-Apr-22 18:31N 40°39' W 074°06'0 0.0
2017-Apr-22 18:00N 40°39' W 074°06'0 0.0
2017-Apr-22 17:30N 40°39' W 074°06'0 0.0
2017-Apr-22 17:00N 40°39' W 074°06'0 0.1
2017-Apr-22 16:30N 40°39' W 074°06'0 0.0
2017-Apr-22 16:00N 40°39' W 074°06'2 4.0
2017-Apr-22 15:30N 40°39' W 074°04'1 2.0
2017-Apr-22 15:00N 40°39' W 074°03'0 0.0
2017-Apr-22 14:30N 40°39' W 074°03'0 0.0
2017-Apr-22 13:30N 40°39' W 074°03'0 0.1
2017-Apr-22 13:00N 40°39' W 074°03'3 5.4
2017-Apr-22 12:30N 40°39' W 074°06'4 7.3
2017-Apr-22 12:00N 40°39' W 074°11'3 5.4
2017-Apr-22 11:27N 40°36' W 074°12'1 0.1
2017-Apr-21 23:06N 40°35' W 074°13'2 6.3
2017-Apr-21 22:49N 40°33' W 074°14'1 2.9
2017-Apr-21 22:29N 40°33' W 074°15'0 0.0
2017-Apr-21 18:52N 40°33' W 074°15'3 3.0
2017-Apr-21 17:49N 40°35' W 074°12'3 7.9
2017-Apr-21 17:30N 40°38' W 074°12'4 8.5
2017-Apr-21 17:00N 40°39' W 074°07'4 8.9
2017-Apr-21 16:30N 40°41' W 074°02'4 8.2
2017-Apr-21 16:01N 40°44' W 073°58'4 8.4
2017-Apr-21 15:30N 40°47' W 073°55'4 8.6
2017-Apr-21 15:00N 40°48' W 073°49'5 0.2
2017-Apr-20 17:01N 40°52' W 073°45'3 7.2
2017-Apr-20 16:33N 40°49' W 073°47'0 7.1
2017-Apr-20 16:30N 40°49' W 073°47'3 6.4
2017-Apr-20 15:59N 40°48' W 073°51'3 6.4
2017-Apr-20 15:30N 40°47' W 073°55'2 5.0
2017-Apr-20 15:00N 40°45' W 073°57'3 5.3
2017-Apr-20 14:30N 40°43' W 073°58'5 4.9
2017-Apr-20 13:30N 40°39' W 074°02'1 1.0
2017-Apr-20 13:00N 40°39' W 074°03'0 0.2
2017-Apr-20 12:30N 40°39' W 074°03'0 0.1
2017-Apr-20 12:01N 40°39' W 074°03'0 0.1
2017-Apr-20 11:30N 40°39' W 074°03'2 3.5
2017-Apr-20 11:00N 40°39' W 074°05'3 5.6
2017-Apr-20 10:30N 40°39' W 074°09'2 4.2
2017-Apr-20 10:00N 40°38' W 074°12'1 1.6
2017-Apr-20 09:30N 40°38' W 074°12'0 0.0
2017-Apr-20 09:00N 40°38' W 074°12'0 0.0
2017-Apr-20 08:29N 40°38' W 074°12'0 0.0
2017-Apr-20 08:00N 40°38' W 074°12'0 0.0
2017-Apr-20 07:29N 40°38' W 074°12'0 0.0
2017-Apr-20 07:00N 40°38' W 074°12'0 0.0
2017-Apr-20 06:30N 40°38' W 074°12'0 0.0
2017-Apr-20 06:00N 40°38' W 074°12'0 0.0
2017-Apr-20 05:30N 40°38' W 074°12'0 0.0
2017-Apr-20 05:00N 40°38' W 074°12'0 0.0
2017-Apr-20 04:30N 40°38' W 074°12'0 0.0
2017-Apr-20 04:00N 40°38' W 074°12'0 0.0
2017-Apr-20 03:30N 40°38' W 074°12'0 0.0
2017-Apr-20 02:55N 40°38' W 074°12'0 0.0
2017-Apr-20 02:30N 40°38' W 074°12'0 0.0
2017-Apr-20 01:59N 40°38' W 074°12'0 0.0
2017-Apr-20 01:29N 40°38' W 074°12'0 0.0
2017-Apr-20 00:58N 40°38' W 074°12'0 0.0
2017-Apr-20 00:27N 40°38' W 074°12'0 0.0
2017-Apr-20 00:00N 40°38' W 074°12'0 0.0
2017-Apr-19 23:29N 40°38' W 074°12'0 0.0
2017-Apr-19 22:58N 40°38' W 074°12'0 0.0
2017-Apr-19 22:27N 40°38' W 074°12'1 1.3
2017-Apr-19 22:00N 40°37' W 074°12'2 2.3
2017-Apr-19 20:57N 40°35' W 074°13'2 0.3
2017-Apr-19 12:16N 40°33' W 074°15'0 0.1
2017-Apr-19 12:00N 40°33' W 074°15'0 0.0
2017-Apr-19 11:30N 40°33' W 074°15'0 0.0
2017-Apr-19 10:45N 40°33' W 074°15'0 0.0
2017-Apr-19 10:23N 40°33' W 074°15'0 0.0
2017-Apr-19 10:00N 40°33' W 074°15'0 0.0
2017-Apr-19 09:28N 40°33' W 074°15'0 0.0
2017-Apr-19 09:00N 40°33' W 074°15'0 0.0
2017-Apr-19 08:30N 40°33' W 074°15'0 0.0
2017-Apr-19 08:00N 40°33' W 074°15'0 0.0
2017-Apr-19 07:29N 40°33' W 074°15'0 0.0
2017-Apr-19 07:00N 40°33' W 074°15'0 0.0
2017-Apr-19 06:30N 40°33' W 074°15'0 0.0
2017-Apr-19 06:00N 40°33' W 074°15'0 0.0
2017-Apr-19 05:30N 40°33' W 074°15'0 0.0
2017-Apr-19 04:59N 40°33' W 074°15'0 0.0
2017-Apr-19 04:25N 40°33' W 074°15'0 0.0
2017-Apr-19 03:59N 40°33' W 074°15'0 0.0
2017-Apr-19 03:29N 40°33' W 074°15'0 0.4
2017-Apr-19 02:36N 40°33' W 074°15'4 7.3
2017-Apr-19 02:07N 40°36' W 074°12'1 7.7
2017-Apr-19 02:00N 40°36' W 074°12'  
Track history (hours):
 
Tides and Currents Weather Stations Pressure Air Temp Water Temp Dewpoint Dewpoint Depression Visibility Wind Speed Wind Dir Waves Ship Positions

Quenames

Owner: BOSTON MARINE TRANSPORT INC, Pelham, NH. More information available from US FCC via Universal Licensing System and Coast Guard Vessel Documentation Center.

Last reported at 2017-Apr-29 01:30 UTC. Time now 2017-Apr-29 01:43 UTC.
Position N 40°39' W 074°07'.

Length 23 m; draft 3 m.

Type: Tug. MMSI: 367022790.

Date/timePositionNaut miles runAvg speedWind from/ knotsBaromVisibWave heightAir tempDewpointWater temp
2017-Apr-29 01:30N 40°39' W 074°07'0 0.0
2017-Apr-29 01:00N 40°39' W 074°07'0 0.0
2017-Apr-29 00:30N 40°39' W 074°07'0 0.7
2017-Apr-29 00:00N 40°39' W 074°07'4 8.0
2017-Apr-28 23:30N 40°38' W 074°12'5 9.2
2017-Apr-28 23:00N 40°33' W 074°14'1 0.2
2017-Apr-28 19:58N 40°33' W 074°15'3 2.9
2017-Apr-28 18:51N 40°35' W 074°12'3 7.9
2017-Apr-28 18:30N 40°38' W 074°12'2 4.6
2017-Apr-28 17:59N 40°39' W 074°09'2 4.7
2017-Apr-28 17:30N 40°39' W 074°06'3 6.6
2017-Apr-28 17:00N 40°41' W 074°02'4 8.3
2017-Apr-28 16:30N 40°43' W 073°58'4 7.7
2017-Apr-28 16:00N 40°47' W 073°56'3 6.7
2017-Apr-28 15:30N 40°48' W 073°52'3 5.7
2017-Apr-28 14:55N 40°48' W 073°47'1 0.0
2017-Apr-27 10:39N 40°50' W 073°47'1 7.8
2017-Apr-27 10:30N 40°48' W 073°47'4 7.4
2017-Apr-27 09:59N 40°48' W 073°52'3 6.0
2017-Apr-27 09:30N 40°47' W 073°56'3 5.5
2017-Apr-27 09:00N 40°45' W 073°58'2 4.9
2017-Apr-27 08:31N 40°42' W 073°59'3 5.0
2017-Apr-27 08:00N 40°41' W 074°01'2 3.7
2017-Apr-27 07:30N 40°40' W 074°03'3 6.2
2017-Apr-27 07:00N 40°39' W 074°07'3 6.3
2017-Apr-27 06:30N 40°39' W 074°11'3 5.1
2017-Apr-27 05:55N 40°36' W 074°12'3 4.1
2017-Apr-27 05:16N 40°33' W 074°14'1 1.0
2017-Apr-27 04:39N 40°33' W 074°15'0 0.0
2017-Apr-26 22:03N 40°33' W 074°15'3 6.9
2017-Apr-26 21:34N 40°36' W 074°12'1 8.6
2017-Apr-26 21:30N 40°36' W 074°12'1 2.2
2017-Apr-26 20:53N 40°38' W 074°12'1 2.2
2017-Apr-26 20:30N 40°37' W 074°12'4 0.4
2017-Apr-26 08:59N 40°33' W 074°15'4 8.4
2017-Apr-26 08:30N 40°37' W 074°12'0 0.3
2017-Apr-26 08:00N 40°37' W 074°12'5 0.3
2017-Apr-25 17:03N 40°33' W 074°15'0 4.7
2017-Apr-25 17:00N 40°33' W 074°15'0 0.0
2017-Apr-25 16:24N 40°33' W 074°15'0 0.0
2017-Apr-25 09:51N 40°33' W 074°15'0 0.0
2017-Apr-25 09:29N 40°33' W 074°15'0 0.0
2017-Apr-25 08:59N 40°33' W 074°15'0 0.0
2017-Apr-25 05:50N 40°33' W 074°15'0 0.1
2017-Apr-25 05:07N 40°33' W 074°15'0 1.0
2017-Apr-25 05:00N 40°33' W 074°15'4 5.1
2017-Apr-25 04:18N 40°36' W 074°12'3 8.4
2017-Apr-25 03:59N 40°38' W 074°11'4 7.3
2017-Apr-25 03:30N 40°39' W 074°07'4 7.6
2017-Apr-25 03:00N 40°40' W 074°02'5 9.6
2017-Apr-25 02:30N 40°44' W 073°58'510.1
2017-Apr-25 02:00N 40°48' W 073°54'4 8.5
2017-Apr-25 01:29N 40°48' W 073°48'6 2.4
2017-Apr-24 23:09N 40°53' W 073°44'310.0
2017-Apr-24 22:51N 40°50' W 073°46'3 8.4
2017-Apr-24 22:29N 40°48' W 073°49'611.8
2017-Apr-24 22:00N 40°46' W 073°56'611.8
2017-Apr-24 21:31N 40°41' W 074°01'5 9.7
2017-Apr-24 21:00N 40°39' W 074°06'4 8.3
2017-Apr-24 20:30N 40°39' W 074°11'4 8.4
2017-Apr-24 20:00N 40°34' W 074°13'1 0.7
2017-Apr-24 18:07N 40°36' W 074°12'1 8.1
2017-Apr-24 18:00N 40°36' W 074°12'4 7.6
2017-Apr-24 17:30N 40°39' W 074°08'5 9.7
2017-Apr-24 17:00N 40°40' W 074°02'1 1.9
2017-Apr-24 16:30N 40°40' W 074°03'5 9.3
2017-Apr-24 16:00N 40°39' W 074°09'3 5.4
2017-Apr-24 15:30N 40°37' W 074°12'6 1.0
2017-Apr-24 09:47N 40°32' W 074°15'0 0.0
2017-Apr-24 09:30N 40°32' W 074°15'0 0.0
2017-Apr-24 08:15N 40°32' W 074°15'0 0.0
2017-Apr-24 07:40N 40°32' W 074°15'0 0.0
2017-Apr-24 07:14N 40°32' W 074°15'0 0.0
2017-Apr-24 06:51N 40°32' W 074°15'0 0.0
2017-Apr-24 06:28N 40°32' W 074°15'0 0.0
2017-Apr-24 05:57N 40°32' W 074°15'0 0.0
2017-Apr-24 05:30N 40°32' W 074°15'0 0.0
2017-Apr-24 05:00N 40°32' W 074°15'0 0.0
2017-Apr-23 22:33N 40°32' W 074°15'0 0.0
2017-Apr-23 22:26N 40°32' W 074°15'0 0.0
2017-Apr-23 19:25N 40°32' W 074°15'1 0.6
2017-Apr-23 18:23N 40°33' W 074°15'0 0.3
2017-Apr-23 16:55N 40°33' W 074°15'0 0.0
2017-Apr-23 16:20N 40°33' W 074°15'0 0.0
2017-Apr-23 02:51N 40°33' W 074°15'3 7.1
2017-Apr-23 02:22N 40°35' W 074°12'3 8.6
2017-Apr-23 02:00N 40°38' W 074°12'4 7.1
2017-Apr-23 01:30N 40°39' W 074°07'0 0.8
2017-Apr-23 01:00N 40°39' W 074°06'0 0.0
2017-Apr-23 00:30N 40°39' W 074°06'0 0.0
2017-Apr-23 00:00N 40°39' W 074°06'0 0.0
2017-Apr-22 23:30N 40°39' W 074°06'0 0.0
2017-Apr-22 23:00N 40°39' W 074°06'0 0.0
2017-Apr-22 22:31N 40°39' W 074°06'0 0.0
2017-Apr-22 22:00N 40°39' W 074°06'0 0.0
2017-Apr-22 21:30N 40°39' W 074°06'0 0.0
2017-Apr-22 21:00N 40°39' W 074°06'0 0.0
2017-Apr-22 20:30N 40°39' W 074°06'0 0.0
2017-Apr-22 20:00N 40°39' W 074°06'0 0.0
2017-Apr-22 19:30N 40°39' W 074°06'0 0.0
2017-Apr-22 19:00N 40°39' W 074°06'0 0.0
2017-Apr-22 18:31N 40°39' W 074°06'0 0.0
2017-Apr-22 18:00N 40°39' W 074°06'0 0.0
2017-Apr-22 17:30N 40°39' W 074°06'0 0.0
2017-Apr-22 17:00N 40°39' W 074°06'0 0.1
2017-Apr-22 16:30N 40°39' W 074°06'0 0.0
2017-Apr-22 16:00N 40°39' W 074°06'2 4.0
2017-Apr-22 15:30N 40°39' W 074°04'1 2.0
2017-Apr-22 15:00N 40°39' W 074°03'0 0.0
2017-Apr-22 14:30N 40°39' W 074°03'0 0.0
2017-Apr-22 13:30N 40°39' W 074°03'0 0.1
2017-Apr-22 13:00N 40°39' W 074°03'3 5.4
2017-Apr-22 12:30N 40°39' W 074°06'4 7.3
2017-Apr-22 12:00N 40°39' W 074°11'3 5.4
2017-Apr-22 11:27N 40°36' W 074°12'1 0.1
2017-Apr-21 23:06N 40°35' W 074°13'2 6.3
2017-Apr-21 22:49N 40°33' W 074°14'1 2.9
2017-Apr-21 22:29N 40°33' W 074°15'0 0.0
2017-Apr-21 18:52N 40°33' W 074°15'3 3.0
2017-Apr-21 17:49N 40°35' W 074°12'3 7.9
2017-Apr-21 17:30N 40°38' W 074°12'4 8.5
2017-Apr-21 17:00N 40°39' W 074°07'4 8.9
2017-Apr-21 16:30N 40°41' W 074°02'4 8.2
2017-Apr-21 16:01N 40°44' W 073°58'4 8.4
2017-Apr-21 15:30N 40°47' W 073°55'4 8.6
2017-Apr-21 15:00N 40°48' W 073°49'5 0.2
2017-Apr-20 17:01N 40°52' W 073°45'3 7.2
2017-Apr-20 16:33N 40°49' W 073°47'0 7.1
2017-Apr-20 16:30N 40°49' W 073°47'3 6.4
2017-Apr-20 15:59N 40°48' W 073°51'3 6.4
2017-Apr-20 15:30N 40°47' W 073°55'2 5.0
2017-Apr-20 15:00N 40°45' W 073°57'3 5.3
2017-Apr-20 14:30N 40°43' W 073°58'5 4.9
2017-Apr-20 13:30N 40°39' W 074°02'1 1.0
2017-Apr-20 13:00N 40°39' W 074°03'0 0.2
2017-Apr-20 12:30N 40°39' W 074°03'0 0.1
2017-Apr-20 12:01N 40°39' W 074°03'0 0.1
2017-Apr-20 11:30N 40°39' W 074°03'2 3.5
2017-Apr-20 11:00N 40°39' W 074°05'3 5.6
2017-Apr-20 10:30N 40°39' W 074°09'2 4.2
2017-Apr-20 10:00N 40°38' W 074°12'1 1.6
2017-Apr-20 09:30N 40°38' W 074°12'0 0.0
2017-Apr-20 09:00N 40°38' W 074°12'0 0.0
2017-Apr-20 08:29N 40°38' W 074°12'0 0.0
2017-Apr-20 08:00N 40°38' W 074°12'0 0.0
2017-Apr-20 07:29N 40°38' W 074°12'0 0.0
2017-Apr-20 07:00N 40°38' W 074°12'0 0.0
2017-Apr-20 06:30N 40°38' W 074°12'0 0.0
2017-Apr-20 06:00N 40°38' W 074°12'0 0.0
2017-Apr-20 05:30N 40°38' W 074°12'0 0.0
2017-Apr-20 05:00N 40°38' W 074°12'0 0.0
2017-Apr-20 04:30N 40°38' W 074°12'0 0.0
2017-Apr-20 04:00N 40°38' W 074°12'0 0.0
2017-Apr-20 03:30N 40°38' W 074°12'0 0.0
2017-Apr-20 02:55N 40°38' W 074°12'0 0.0
2017-Apr-20 02:30N 40°38' W 074°12'0 0.0
2017-Apr-20 01:59N 40°38' W 074°12'0 0.0
2017-Apr-20 01:29N 40°38' W 074°12'0 0.0
2017-Apr-20 00:58N 40°38' W 074°12'0 0.0
2017-Apr-20 00:27N 40°38' W 074°12'0 0.0
2017-Apr-20 00:00N 40°38' W 074°12'0 0.0
2017-Apr-19 23:29N 40°38' W 074°12'0 0.0
2017-Apr-19 22:58N 40°38' W 074°12'0 0.0
2017-Apr-19 22:27N 40°38' W 074°12'1 1.3
2017-Apr-19 22:00N 40°37' W 074°12'2 2.3
2017-Apr-19 20:57N 40°35' W 074°13'2 0.3
2017-Apr-19 12:16N 40°33' W 074°15'0 0.1
2017-Apr-19 12:00N 40°33' W 074°15'0 0.0
2017-Apr-19 11:30N 40°33' W 074°15'0 0.0
2017-Apr-19 10:45N 40°33' W 074°15'0 0.0
2017-Apr-19 10:23N 40°33' W 074°15'0 0.0
2017-Apr-19 10:00N 40°33' W 074°15'0 0.0
2017-Apr-19 09:28N 40°33' W 074°15'0 0.0
2017-Apr-19 09:00N 40°33' W 074°15'0 0.0
2017-Apr-19 08:30N 40°33' W 074°15'0 0.0
2017-Apr-19 08:00N 40°33' W 074°15'0 0.0
2017-Apr-19 07:29N 40°33' W 074°15'0 0.0
2017-Apr-19 07:00N 40°33' W 074°15'0 0.0
2017-Apr-19 06:30N 40°33' W 074°15'0 0.0
2017-Apr-19 06:00N 40°33' W 074°15'0 0.0
2017-Apr-19 05:30N 40°33' W 074°15'0 0.0
2017-Apr-19 04:59N 40°33' W 074°15'0 0.0
2017-Apr-19 04:25N 40°33' W 074°15'0 0.0
2017-Apr-19 03:59N 40°33' W 074°15'0 0.0
2017-Apr-19 03:29N 40°33' W 074°15'0 0.4
2017-Apr-19 02:36N 40°33' W 074°15'4 7.3
2017-Apr-19 02:07N 40°36' W 074°12'1 7.7
2017-Apr-19 02:00N 40°36' W 074°12'  

Dump ship's entire track history